createdAt,value
2022-08-21T00:00:49.388Z,13.20
2022-08-21T00:03:19.223Z,13.20
2022-08-21T00:05:50.817Z,13.20
2022-08-21T00:08:20.393Z,13.50
2022-08-21T00:10:50.151Z,13.50
2022-08-21T00:15:50.490Z,13.50
2022-08-21T00:18:19.559Z,15.20
2022-08-21T00:20:49.239Z,15.20
2022-08-21T00:23:19.727Z,15.20
2022-08-21T00:25:49.348Z,15.20
2022-08-21T00:28:19.190Z,12.50
2022-08-21T00:30:49.218Z,12.50
2022-08-21T00:33:19.152Z,12.50
2022-08-21T00:35:49.487Z,12.50
2022-08-21T00:38:19.286Z,13.80
2022-08-21T00:40:52.873Z,13.80
2022-08-21T00:43:21.384Z,13.80
2022-08-21T00:45:50.089Z,13.80
2022-08-21T00:48:19.910Z,12.40
2022-08-21T00:50:54.621Z,12.40
2022-08-21T00:53:19.453Z,12.40
2022-08-21T00:55:50.209Z,12.40
2022-08-21T00:58:19.884Z,15.70
2022-08-21T01:00:50.909Z,15.70
2022-08-21T01:03:23.592Z,15.70
2022-08-21T01:05:49.443Z,15.70
2022-08-21T01:08:21.010Z,13.30
2022-08-21T01:10:51.148Z,13.30
2022-08-21T01:13:21.493Z,13.30
2022-08-21T01:15:52.168Z,14.60
2022-08-21T01:18:20.883Z,14.60
2022-08-21T01:21:01.043Z,14.60
2022-08-21T01:23:19.129Z,14.60
2022-08-21T01:25:49.353Z,14.60
2022-08-21T01:28:21.098Z,16.70
2022-08-21T01:35:49.323Z,16.70
2022-08-21T01:38:20.105Z,15.00
2022-08-21T01:45:49.614Z,15.00
2022-08-21T01:50:49.293Z,17.30
2022-08-21T01:55:49.279Z,15.70
2022-08-21T02:00:49.626Z,15.70
2022-08-21T02:03:31.219Z,15.70
2022-08-21T02:05:49.270Z,14.50
2022-08-21T02:13:20.227Z,14.50
2022-08-21T02:15:49.354Z,15.40
2022-08-21T02:18:19.242Z,15.40
2022-08-21T02:25:49.564Z,15.70
2022-08-21T02:28:19.249Z,15.70
2022-08-21T02:33:19.639Z,15.70
2022-08-21T02:35:50.386Z,16.80
2022-08-21T02:40:51.403Z,16.80
2022-08-21T02:43:22.271Z,16.80
2022-08-21T02:45:51.086Z,15.30
2022-08-21T02:48:22.865Z,15.30
2022-08-21T02:50:54.455Z,15.30
2022-08-21T02:55:52.105Z,17.30
2022-08-21T03:08:20.051Z,18.10
2022-08-21T03:10:51.437Z,18.10
2022-08-21T03:13:20.684Z,18.10
2022-08-21T03:15:49.643Z,18.30
2022-08-21T03:20:49.964Z,18.30
2022-08-21T03:25:51.038Z,17.10
2022-08-21T03:33:23.156Z,17.10
2022-08-21T03:35:57.924Z,21.10
2022-08-21T03:40:49.251Z,21.10
2022-08-21T03:43:19.565Z,21.10
2022-08-21T03:48:20.292Z,16.20
2022-08-21T03:53:19.456Z,16.20
2022-08-21T03:55:50.886Z,17.50
2022-08-21T03:58:22.228Z,17.50
2022-08-21T04:05:49.478Z,19.60
2022-08-21T04:08:19.851Z,19.60
2022-08-21T04:10:52.569Z,19.60
2022-08-21T04:18:19.588Z,19.10
2022-08-21T04:20:51.695Z,19.10
2022-08-21T04:23:23.625Z,19.10
2022-08-21T04:25:49.722Z,17.10
2022-08-21T04:28:19.424Z,17.10
2022-08-21T04:30:50.277Z,17.10
2022-08-21T04:33:19.826Z,17.10
2022-08-21T04:38:20.235Z,20.00
2022-08-21T04:40:50.334Z,20.00
2022-08-21T04:43:21.450Z,20.00
2022-08-21T04:48:22.234Z,17.50
2022-08-21T04:50:53.311Z,17.50
2022-08-21T04:53:32.009Z,17.50
2022-08-21T04:58:21.532Z,17.10
2022-08-21T05:03:19.422Z,17.10
2022-08-21T05:05:49.586Z,20.50
2022-08-21T05:08:23.129Z,20.50
2022-08-21T05:10:50.057Z,20.50
2022-08-21T05:13:20.098Z,20.50
2022-08-21T05:15:49.208Z,17.30
2022-08-21T05:18:19.216Z,17.30
2022-08-21T05:20:49.839Z,17.30
2022-08-21T05:23:19.872Z,17.30
2022-08-21T05:25:49.404Z,20.00
2022-08-21T05:28:19.673Z,20.00
2022-08-21T05:30:49.349Z,20.00
2022-08-21T05:33:19.287Z,20.00
2022-08-21T05:35:49.928Z,20.10
2022-08-21T05:38:19.483Z,20.10
2022-08-21T05:40:49.289Z,20.10
2022-08-21T05:43:19.754Z,20.10
2022-08-21T05:45:49.234Z,17.80
2022-08-21T05:48:22.382Z,17.80
2022-08-21T05:50:51.697Z,17.80
2022-08-21T05:53:20.969Z,17.80
2022-08-21T05:55:50.172Z,23.60
2022-08-21T05:58:21.083Z,23.60
2022-08-21T06:00:51.908Z,23.60
2022-08-21T06:03:21.143Z,23.60
2022-08-21T06:05:49.825Z,19.10
2022-08-21T06:08:20.650Z,19.10
2022-08-21T06:10:50.694Z,19.10
2022-08-21T06:13:21.026Z,19.10
2022-08-21T06:15:50.424Z,22.60
2022-08-21T06:18:19.225Z,22.60
2022-08-21T06:20:49.227Z,22.60
2022-08-21T06:23:19.284Z,22.60
2022-08-21T06:25:49.342Z,16.20
2022-08-21T06:28:19.318Z,16.20
2022-08-21T06:30:49.524Z,16.20
2022-08-21T06:33:19.567Z,16.20
2022-08-21T06:35:49.670Z,21.70
2022-08-21T06:38:19.594Z,21.70
2022-08-21T06:40:49.233Z,21.70
2022-08-21T06:43:19.332Z,21.70
2022-08-21T06:45:49.548Z,22.70
2022-08-21T06:48:19.702Z,22.70
2022-08-21T06:50:49.727Z,22.70
2022-08-21T06:53:20.623Z,22.70
2022-08-21T06:55:49.528Z,23.60
2022-08-21T06:58:19.886Z,23.60
2022-08-21T07:00:51.489Z,23.60
2022-08-21T07:03:21.909Z,23.60
2022-08-21T07:05:49.796Z,14.70
2022-08-21T07:08:19.890Z,14.70
2022-08-21T07:10:49.813Z,14.70
2022-08-21T07:13:19.289Z,14.70
2022-08-21T07:15:50.128Z,16.10
2022-08-21T07:18:19.740Z,16.10
2022-08-21T07:20:50.649Z,16.10
2022-08-21T07:23:24.823Z,16.10
2022-08-21T07:25:49.476Z,13.40
2022-08-21T07:28:19.576Z,13.40
2022-08-21T07:30:53.140Z,13.40
2022-08-21T07:33:19.462Z,13.40
2022-08-21T07:35:49.620Z,15.20
2022-08-21T07:38:19.889Z,15.20
2022-08-21T07:40:52.035Z,15.20
2022-08-21T07:43:19.729Z,15.20
2022-08-21T07:45:49.388Z,17.60
2022-08-21T07:48:19.560Z,17.60
2022-08-21T07:50:50.076Z,17.60
2022-08-21T07:53:19.326Z,17.60
2022-08-21T07:55:49.508Z,16.00
2022-08-21T07:58:19.648Z,16.00
2022-08-21T08:00:49.629Z,16.00
2022-08-21T08:03:28.563Z,16.00
2022-08-21T08:05:49.808Z,14.90
2022-08-21T08:08:19.661Z,14.90
2022-08-21T08:10:49.922Z,14.90
2022-08-21T08:13:19.320Z,14.90
2022-08-21T08:15:49.924Z,15.50
2022-08-21T08:18:19.594Z,15.50
2022-08-21T08:20:49.378Z,15.50
2022-08-21T08:23:19.430Z,15.50
2022-08-21T08:25:49.554Z,13.30
2022-08-21T08:28:19.332Z,13.30
2022-08-21T08:30:50.023Z,13.30
2022-08-21T08:33:19.969Z,13.30
2022-08-21T08:35:51.122Z,12.10
2022-08-21T08:38:24.389Z,12.10
2022-08-21T08:41:00.114Z,12.10
2022-08-21T08:43:20.262Z,12.10
2022-08-21T08:45:54.599Z,13.50
2022-08-21T08:48:36.527Z,13.50
2022-08-21T08:50:55.318Z,13.50
2022-08-21T08:53:24.306Z,13.50
2022-08-21T08:55:51.979Z,11.20
2022-08-21T08:58:24.582Z,11.20
2022-08-21T09:00:53.456Z,11.20
2022-08-21T09:03:22.173Z,11.20
2022-08-21T09:05:56.682Z,13.10
2022-08-21T09:08:33.742Z,13.10
2022-08-21T09:10:57.842Z,13.10
2022-08-21T09:16:02.304Z,11.30
2022-08-21T09:18:34.199Z,11.30
2022-08-21T09:21:03.123Z,11.30
2022-08-21T09:23:29.708Z,11.30
2022-08-21T09:25:59.557Z,12.40
2022-08-21T09:28:19.530Z,12.40
2022-08-21T09:30:54.109Z,12.40
2022-08-21T09:33:20.500Z,12.40
2022-08-21T09:35:52.929Z,9.20
2022-08-21T09:38:27.067Z,9.20
2022-08-21T09:40:56.949Z,9.20
2022-08-21T09:43:22.178Z,9.20
2022-08-21T09:46:02.956Z,12.80
2022-08-21T09:48:27.188Z,12.80
2022-08-21T09:50:51.105Z,12.80
2022-08-21T09:53:23.469Z,12.80
2022-08-21T09:56:02.845Z,11.00
2022-08-21T09:58:20.546Z,11.00
2022-08-21T10:00:58.355Z,11.00
2022-08-21T10:03:21.537Z,11.00
2022-08-21T10:05:55.272Z,11.10
2022-08-21T10:08:21.995Z,11.10
2022-08-21T10:10:56.352Z,11.10
2022-08-21T10:13:28.264Z,11.10
2022-08-21T10:15:56.408Z,9.10
2022-08-21T10:18:26.152Z,9.10
2022-08-21T10:20:59.352Z,9.10
2022-08-21T10:23:34.720Z,9.10
2022-08-21T10:26:13.662Z,10.80
2022-08-21T10:28:27.112Z,10.80
2022-08-21T10:30:56.040Z,10.80
2022-08-21T10:33:28.497Z,10.80
2022-08-21T10:35:58.260Z,9.70
2022-08-21T10:38:55.229Z,9.70
2022-08-21T10:41:01.898Z,9.70
2022-08-21T10:43:27.312Z,9.70
2022-08-21T10:46:01.166Z,7.20
2022-08-21T10:48:27.821Z,7.20
2022-08-21T10:50:54.376Z,7.20
2022-08-21T10:53:33.785Z,7.20
2022-08-21T10:55:56.060Z,8.10
2022-08-21T10:58:25.641Z,8.10
2022-08-21T11:00:53.666Z,8.10
2022-08-21T11:03:29.072Z,8.10
2022-08-21T11:05:53.388Z,9.30
2022-08-21T11:08:23.994Z,9.30
2022-08-21T11:10:59.469Z,9.30
2022-08-21T11:13:31.141Z,9.30
2022-08-21T11:15:56.955Z,13.80
2022-08-21T11:18:26.494Z,13.80
2022-08-21T11:20:59.095Z,13.80
2022-08-21T11:23:29.294Z,13.80
2022-08-21T11:25:55.197Z,10.10
2022-08-21T11:28:24.558Z,10.10
2022-08-21T11:31:02.262Z,10.10
2022-08-21T11:33:34.222Z,10.10
2022-08-21T11:35:59.252Z,8.00
2022-08-21T11:38:27.868Z,8.00
2022-08-21T11:41:03.517Z,8.00
2022-08-21T11:43:32.087Z,8.00
2022-08-21T11:45:52.017Z,8.00
2022-08-21T11:48:35.056Z,13.30
2022-08-21T11:50:52.375Z,13.30
2022-08-21T11:53:25.108Z,13.30
2022-08-21T11:55:57.108Z,9.30
2022-08-21T11:58:25.719Z,9.30
2022-08-21T12:00:54.452Z,9.30
2022-08-21T12:03:28.123Z,9.30
2022-08-21T12:05:54.027Z,9.30
2022-08-21T12:08:28.402Z,9.70
2022-08-21T12:11:01.579Z,9.70
2022-08-21T12:13:39.975Z,9.70
2022-08-21T12:15:50.383Z,9.70
2022-08-21T12:18:27.985Z,10.40
2022-08-21T12:21:01.246Z,10.40
2022-08-21T12:23:27.149Z,10.40
2022-08-21T12:26:02.322Z,6.40
2022-08-21T12:28:23.589Z,6.40
2022-08-21T12:30:52.932Z,6.40
2022-08-21T12:33:25.206Z,6.40
2022-08-21T12:35:52.617Z,6.40
2022-08-21T12:38:23.922Z,8.60
2022-08-21T12:40:54.742Z,8.60
2022-08-21T12:43:27.498Z,8.60
2022-08-21T12:45:51.113Z,8.60
2022-08-21T12:48:25.462Z,9.00
2022-08-21T12:50:51.841Z,9.00
2022-08-21T12:53:28.107Z,9.00
2022-08-21T12:55:49.591Z,9.00
2022-08-21T12:58:20.837Z,10.20
2022-08-21T13:00:52.499Z,10.20
2022-08-21T13:03:21.058Z,10.20
2022-08-21T13:05:51.851Z,10.20
2022-08-21T13:08:24.708Z,8.40
2022-08-21T13:10:58.294Z,8.40
2022-08-21T13:13:25.043Z,8.40
2022-08-21T13:15:49.945Z,8.40
2022-08-21T13:18:22.478Z,9.10
2022-08-21T13:20:50.339Z,9.10
2022-08-21T13:23:24.262Z,9.10
2022-08-21T13:25:49.783Z,9.10
2022-08-21T13:28:20.557Z,9.40
2022-08-21T13:30:52.027Z,9.40
2022-08-21T13:33:36.306Z,9.40
2022-08-21T13:35:52.013Z,9.40
2022-08-21T13:38:21.877Z,28.90
2022-08-21T13:40:53.039Z,28.90
2022-08-21T13:43:25.240Z,28.90
2022-08-21T13:45:52.192Z,28.90
2022-08-21T13:48:21.834Z,11.50
2022-08-21T13:50:50.166Z,11.50
2022-08-21T13:53:22.819Z,11.50
2022-08-21T13:55:50.382Z,11.50
2022-08-21T13:58:28.302Z,8.00
2022-08-21T14:00:51.477Z,8.00
2022-08-21T14:03:28.115Z,8.00
2022-08-21T14:05:50.419Z,8.00
2022-08-21T14:08:30.165Z,10.70
2022-08-21T14:13:32.647Z,10.70
2022-08-21T14:15:55.385Z,10.70
2022-08-21T14:18:19.810Z,9.80
2022-08-21T14:20:49.877Z,9.80
2022-08-21T14:25:49.915Z,9.80
2022-08-21T14:28:27.062Z,12.40
2022-08-21T14:30:51.495Z,12.40
2022-08-21T14:33:26.357Z,12.40
2022-08-21T14:38:21.584Z,9.40
2022-08-21T14:40:52.182Z,9.40
2022-08-21T14:43:20.448Z,9.40
2022-08-21T14:45:49.550Z,9.40
2022-08-21T14:48:19.682Z,11.20
2022-08-21T14:50:50.030Z,11.20
2022-08-21T14:53:19.508Z,11.20
2022-08-21T14:56:00.024Z,11.20
2022-08-21T14:58:20.182Z,8.50
2022-08-21T15:00:49.796Z,8.50
2022-08-21T15:03:21.604Z,8.50
2022-08-21T15:05:50.056Z,8.50
2022-08-21T15:08:19.877Z,10.40
2022-08-21T15:11:10.057Z,10.40
2022-08-21T15:13:20.234Z,10.40
2022-08-21T15:15:52.725Z,10.40
2022-08-21T15:18:20.228Z,11.20
2022-08-21T15:20:50.171Z,11.20
2022-08-21T15:23:20.128Z,11.20
2022-08-21T15:25:51.760Z,11.20
2022-08-21T15:28:21.241Z,10.80
2022-08-21T15:30:50.836Z,10.80
2022-08-21T15:33:19.708Z,10.80
2022-08-21T15:35:49.805Z,10.80
2022-08-21T15:38:19.528Z,13.40
2022-08-21T15:40:52.256Z,13.40
2022-08-21T15:43:30.154Z,13.40
2022-08-21T15:45:50.377Z,13.40
2022-08-21T15:48:20.056Z,9.10
2022-08-21T15:50:49.847Z,9.10
2022-08-21T15:53:19.728Z,9.10
2022-08-21T15:55:49.687Z,9.10
2022-08-21T15:58:20.772Z,8.70
2022-08-21T16:00:49.892Z,8.70
2022-08-21T16:03:21.798Z,8.70
2022-08-21T16:05:52.330Z,8.70
2022-08-21T16:08:20.281Z,11.30
2022-08-21T16:10:52.055Z,11.30
2022-08-21T16:13:25.652Z,11.30
2022-08-21T16:15:50.051Z,11.30
2022-08-21T16:18:22.088Z,12.70
2022-08-21T16:20:50.179Z,12.70
2022-08-21T16:23:19.669Z,12.70
2022-08-21T16:25:50.006Z,12.70
2022-08-21T16:28:21.018Z,11.90
2022-08-21T16:30:50.748Z,11.90
2022-08-21T16:33:24.481Z,11.90
2022-08-21T16:35:50.662Z,11.90
2022-08-21T16:38:19.939Z,8.90
2022-08-21T16:40:50.316Z,8.90
2022-08-21T16:43:21.618Z,8.90
2022-08-21T16:45:49.877Z,8.90
2022-08-21T16:48:20.416Z,9.50
2022-08-21T16:50:51.122Z,9.50
2022-08-21T16:53:19.586Z,9.50
2022-08-21T16:55:50.549Z,9.50
2022-08-21T16:58:24.919Z,10.50
2022-08-21T17:05:49.826Z,10.50
2022-08-21T17:08:19.740Z,10.40
2022-08-21T17:13:20.140Z,10.40
2022-08-21T17:15:49.709Z,10.40
2022-08-21T17:18:23.106Z,10.90
2022-08-21T17:20:50.266Z,10.90
2022-08-21T17:23:20.645Z,10.90
2022-08-21T17:25:52.996Z,10.90
2022-08-21T17:28:22.752Z,11.60
2022-08-21T17:30:52.786Z,11.60
2022-08-21T17:33:20.312Z,11.60
2022-08-21T17:35:49.619Z,11.60
2022-08-21T17:38:19.703Z,12.80
2022-08-21T17:43:19.808Z,12.80
2022-08-21T17:48:19.704Z,11.90
2022-08-21T17:50:49.689Z,11.90
2022-08-21T17:53:19.647Z,11.90
2022-08-21T17:55:50.754Z,11.90
2022-08-21T17:58:19.734Z,11.20
2022-08-21T18:00:49.902Z,11.20
2022-08-21T18:03:21.868Z,11.20
2022-08-21T18:05:52.756Z,11.20
2022-08-21T18:08:19.997Z,12.20
2022-08-21T18:10:50.952Z,12.20
2022-08-21T18:13:23.584Z,12.20
2022-08-21T18:15:51.863Z,12.20
2022-08-21T18:18:20.613Z,15.10
2022-08-21T18:20:51.948Z,15.10
2022-08-21T18:23:19.639Z,15.10
2022-08-21T18:25:53.923Z,15.10
2022-08-21T18:28:20.564Z,18.10
2022-08-21T18:30:53.247Z,18.10
2022-08-21T18:33:21.618Z,18.10
2022-08-21T18:35:50.570Z,18.10
2022-08-21T18:38:20.443Z,11.10
2022-08-21T18:40:55.907Z,11.10
2022-08-21T18:43:21.274Z,11.10
2022-08-21T18:45:50.088Z,11.10
2022-08-21T18:48:20.145Z,11.60
2022-08-21T18:50:49.753Z,11.60
2022-08-21T18:53:27.404Z,11.60
2022-08-21T18:55:50.069Z,11.60
2022-08-21T18:58:20.611Z,13.20
2022-08-21T19:00:51.634Z,13.20
2022-08-21T19:03:23.785Z,13.20
2022-08-21T19:05:50.216Z,13.20
2022-08-21T19:08:22.768Z,13.60
2022-08-21T19:10:53.783Z,13.60
2022-08-21T19:13:20.834Z,13.60
2022-08-21T19:15:52.062Z,13.60
2022-08-21T19:20:50.783Z,13.60
2022-08-21T19:23:20.153Z,13.60
2022-08-21T19:25:57.330Z,13.60
2022-08-21T19:28:28.826Z,14.00
2022-08-21T19:30:56.737Z,14.00
2022-08-21T19:33:23.950Z,14.00
2022-08-21T19:38:20.296Z,11.60
2022-08-21T19:40:50.760Z,11.60
2022-08-21T19:43:22.449Z,11.60
2022-08-21T19:45:53.139Z,11.60
2022-08-21T19:48:20.893Z,11.00
2022-08-21T19:50:50.188Z,11.00
2022-08-21T19:53:20.344Z,11.00
2022-08-21T19:55:49.795Z,11.00
2022-08-21T19:58:27.535Z,13.30
2022-08-21T20:00:50.142Z,13.30
2022-08-21T20:03:21.279Z,13.30
2022-08-21T20:05:49.797Z,13.30
2022-08-21T20:08:20.322Z,11.20
2022-08-21T20:10:51.247Z,11.20
2022-08-21T20:13:20.958Z,11.20
2022-08-21T20:15:51.012Z,11.20
2022-08-21T20:18:20.335Z,11.90
2022-08-21T20:20:49.757Z,11.90
2022-08-21T20:23:30.041Z,11.90
2022-08-21T20:25:50.471Z,11.90
2022-08-21T20:28:19.824Z,12.80
2022-08-21T20:30:49.735Z,12.80
2022-08-21T20:33:19.850Z,12.80
2022-08-21T20:35:51.271Z,12.80
2022-08-21T20:38:20.949Z,14.40
2022-08-21T20:40:51.994Z,14.40
2022-08-21T20:43:20.909Z,14.40
2022-08-21T20:45:50.474Z,14.40
2022-08-21T20:48:23.790Z,12.60
2022-08-21T20:50:54.447Z,12.60
2022-08-21T20:53:28.303Z,12.60
2022-08-21T20:55:50.464Z,12.60
2022-08-21T21:00:51.919Z,12.10
2022-08-21T21:03:30.231Z,12.10
2022-08-21T21:05:53.999Z,12.10
2022-08-21T21:08:24.189Z,13.90
2022-08-21T21:10:54.717Z,13.90
2022-08-21T21:13:31.096Z,13.90
2022-08-21T21:15:53.942Z,13.90
2022-08-21T21:18:26.025Z,12.60
2022-08-21T21:20:53.901Z,12.60
2022-08-21T21:23:24.527Z,12.60
2022-08-21T21:25:57.094Z,12.60
2022-08-21T21:28:26.398Z,13.50
2022-08-21T21:30:51.935Z,13.50
2022-08-21T21:33:19.886Z,13.50
2022-08-21T21:35:54.271Z,13.50
2022-08-21T21:38:23.491Z,14.80
2022-08-21T21:41:01.083Z,14.80
2022-08-21T21:43:34.114Z,14.80
2022-08-21T21:46:07.691Z,14.80
2022-08-21T21:48:26.939Z,16.30
2022-08-21T21:53:39.733Z,16.30
2022-08-21T21:56:05.400Z,16.30
2022-08-21T21:58:38.447Z,14.60
2022-08-21T22:00:59.318Z,14.60
2022-08-21T22:03:28.262Z,14.60
2022-08-21T22:05:56.397Z,14.60
2022-08-21T22:08:29.992Z,18.20
2022-08-21T22:15:50.244Z,18.20
2022-08-21T22:18:24.975Z,14.80
2022-08-21T22:23:25.424Z,14.80
2022-08-21T22:25:54.950Z,14.80
2022-08-21T22:28:25.775Z,17.80
2022-08-21T22:30:53.192Z,17.80
2022-08-21T22:33:24.219Z,17.80
2022-08-21T22:35:51.950Z,17.80
2022-08-21T22:38:29.617Z,20.10
2022-08-21T22:40:50.072Z,20.10
2022-08-21T22:43:23.163Z,20.10
2022-08-21T22:45:59.676Z,20.10
2022-08-21T22:48:22.514Z,17.60
2022-08-21T22:50:55.799Z,17.60
2022-08-21T22:53:25.666Z,17.60
2022-08-21T22:55:55.010Z,17.60
2022-08-21T22:58:22.871Z,18.60
2022-08-21T23:03:26.977Z,18.60
2022-08-21T23:05:51.667Z,18.60
2022-08-21T23:08:25.736Z,16.30
2022-08-21T23:10:50.503Z,16.30
2022-08-21T23:15:59.194Z,16.30
2022-08-21T23:18:30.761Z,18.50
2022-08-21T23:21:01.033Z,18.50
2022-08-21T23:23:23.301Z,18.50
2022-08-21T23:28:34.238Z,14.60
2022-08-21T23:31:02.003Z,14.60
2022-08-21T23:38:32.208Z,14.70
2022-08-21T23:43:34.665Z,14.70
2022-08-21T23:46:09.530Z,14.70
2022-08-21T23:48:30.423Z,17.80
2022-08-21T23:56:06.061Z,17.80
2022-08-21T23:58:31.395Z,14.20
